Time;durP1;ratioP1;P1;durP2;ratioP2;P2;SDS_P1;SDS_P2;PMS_P1;PMS_P2;Temp;Humidity;BMP_temperature;BMP_pressure;BME280_temperature;BME280_humidity;BME280_pressure;Samples;Min_cycle;Max_cycle;Signal;HPM_P1;HPM_P2
2024/02/17 00:01:06;;;;;;;8.00;5.30;;;;;;;14.46;100.00;98790.75;5161978;23;20675;-86
2024/02/17 00:03:12;;;;;;;6.13;4.67;;;;;;;14.46;100.00;98799.44;5162440;23;21118;-86
2024/02/17 00:05:15;;;;;;;6.13;4.70;;;;;;;14.45;100.00;98800.41;5161123;23;20551;-86
2024/02/17 00:07:19;;;;;;;5.77;4.17;;;;;;;14.45;100.00;98797.78;5186397;22;20612;-86
2024/02/17 00:09:22;;;;;;;5.07;4.43;;;;;;;14.44;100.00;98800.53;5162349;23;21209;-86
2024/02/17 00:11:27;;;;;;;5.40;4.70;;;;;;;14.43;100.00;98798.84;5162163;23;21225;-86
2024/02/17 00:13:30;;;;;;;6.17;5.13;;;;;;;14.42;100.00;98797.19;5160833;23;20629;-86
2024/02/17 00:15:33;;;;;;;5.83;5.00;;;;;;;14.42;100.00;98803.25;5187604;22;20673;-86
2024/02/17 00:17:37;;;;;;;6.63;5.10;;;;;;;14.41;100.00;98806.81;5160412;23;20579;-85
2024/02/17 00:19:41;;;;;;;6.63;4.97;;;;;;;14.43;100.00;98804.09;5136724;23;21227;-86
2024/02/17 00:21:44;;;;;;;6.63;4.87;;;;;;;14.42;100.00;98807.69;5189299;22;20578;-86
2024/02/17 00:23:47;;;;;;;7.27;5.20;;;;;;;14.42;100.00;98812.94;5161912;23;20958;-86
2024/02/17 00:25:50;;;;;;;6.80;4.90;;;;;;;14.41;100.00;98816.50;5160815;23;20595;-86
2024/02/17 00:27:56;;;;;;;5.70;5.00;;;;;;;14.42;100.00;98818.19;5186632;22;20656;-86
2024/02/17 00:29:59;;;;;;;6.70;5.30;;;;;;;14.42;100.00;98812.94;5161254;23;21237;-86
2024/02/17 00:32:03;;;;;;;6.53;4.57;;;;;;;14.40;100.00;98820.06;5136492;23;21168;-86
2024/02/17 00:34:06;;;;;;;8.50;4.53;;;;;;;14.36;100.00;98819.44;5162507;23;20574;-86
2024/02/17 00:36:09;;;;;;;5.93;5.33;;;;;;;14.35;100.00;98819.56;5160791;23;20583;-86
2024/02/17 00:38:12;;;;;;;5.87;5.27;;;;;;;14.34;100.00;98821.34;5136433;23;20627;-86
2024/02/17 00:40:16;;;;;;;7.13;5.90;;;;;;;14.33;100.00;98824.09;5160549;23;20654;-86
2024/02/17 00:42:19;;;;;;;6.10;5.47;;;;;;;14.33;100.00;98826.72;5161651;23;20589;-86
2024/02/17 00:44:24;;;;;;;7.60;5.60;;;;;;;14.32;100.00;98822.41;5160675;23;21170;-86
2024/02/17 00:46:27;;;;;;;6.97;6.20;;;;;;;14.31;100.00;98828.59;5130576;23;20583;-86
2024/02/17 00:48:32;;;;;;;9.10;6.50;;;;;;;14.30;100.00;98821.69;5161749;23;20610;-86
2024/02/17 00:50:35;;;;;;;7.00;6.13;;;;;;;14.30;100.00;98840.88;5162794;23;20609;-86
2024/02/17 00:52:38;;;;;;;7.50;6.10;;;;;;;14.30;100.00;98834.81;5162517;23;20571;-86
2024/02/17 00:54:41;;;;;;;7.60;6.70;;;;;;;14.29;100.00;98836.56;5160965;23;20586;-86
2024/02/17 00:56:45;;;;;;;7.90;6.83;;;;;;;14.26;100.00;98841.19;5159650;23;20560;-86
2024/02/17 00:58:47;;;;;;;8.50;6.47;;;;;;;14.24;100.00;98840.47;5161172;23;20574;-86
2024/02/17 01:00:52;;;;;;;10.73;9.20;;;;;;;14.26;100.00;98843.81;5162100;23;20581;-86
2024/02/17 01:02:55;;;;;;;10.70;9.23;;;;;;;14.27;100.00;98842.88;5158765;23;20575;-86
2024/02/17 01:04:58;;;;;;;14.97;10.70;;;;;;;14.26;100.00;98846.44;5160840;23;20682;-86
2024/02/17 01:07:02;;;;;;;10.70;9.10;;;;;;;14.22;100.00;98843.22;5159450;23;20658;-85
2024/02/17 01:09:05;;;;;;;11.30;8.87;;;;;;;14.24;100.00;98848.34;5136142;23;20572;-84
2024/02/17 01:11:08;;;;;;;10.80;9.47;;;;;;;14.22;100.00;98845.84;5161813;23;20572;-85
2024/02/17 01:13:12;;;;;;;11.97;9.97;;;;;;;14.23;100.00;98855.38;5159547;23;20583;-85
2024/02/17 01:15:16;;;;;;;13.30;10.90;;;;;;;14.21;100.00;98853.81;5136204;23;20618;-85
2024/02/17 01:17:20;;;;;;;11.67;10.10;;;;;;;14.21;100.00;98859.91;5161462;23;20618;-84
2024/02/17 01:19:24;;;;;;;13.23;10.10;;;;;;;14.19;100.00;98853.06;5159562;23;20633;-84
2024/02/17 01:21:30;;;;;;;11.30;9.60;;;;;;;14.18;100.00;98854.03;5161827;23;20575;-84
2024/02/17 01:23:33;;;;;;;10.37;8.30;;;;;;;14.20;100.00;98862.63;5161863;23;20951;-85
2024/02/17 01:25:36;;;;;;;13.50;9.20;;;;;;;14.17;100.00;98860.22;5161266;23;20571;-84
2024/02/17 01:27:40;;;;;;;11.17;8.30;;;;;;;14.16;100.00;98859.38;5160569;23;21032;-84
2024/02/17 01:29:43;;;;;;;9.13;7.87;;;;;;;14.16;100.00;98869.03;5136358;23;20634;-84
2024/02/17 01:31:47;;;;;;;9.53;7.37;;;;;;;14.15;100.00;98867.38;5188159;22;20624;-84
2024/02/17 01:33:51;;;;;;;8.37;7.03;;;;;;;14.11;100.00;98865.91;5137141;23;21142;-84
2024/02/17 01:35:54;;;;;;;8.73;6.70;;;;;;;14.09;100.00;98873.03;5161413;23;20645;-84
2024/02/17 01:37:57;;;;;;;6.70;5.30;;;;;;;14.09;100.00;98866.94;5187391;22;20717;-84
2024/02/17 01:40:00;;;;;;;5.20;4.30;;;;;;;14.05;100.00;98868.13;5160147;23;20721;-84
2024/02/17 01:42:04;;;;;;;5.53;4.20;;;;;;;14.02;100.00;98871.75;5187787;22;21072;-84
2024/02/17 01:44:07;;;;;;;5.33;4.47;;;;;;;14.03;100.00;98873.44;5161999;23;20662;-84
2024/02/17 01:46:09;;;;;;;5.70;4.60;;;;;;;14.01;100.00;98875.34;5160838;23;20603;-84
2024/02/17 01:48:13;;;;;;;4.67;3.73;;;;;;;14.02;100.00;98882.25;5161620;23;20621;-84
2024/02/17 01:50:18;;;;;;;4.70;3.60;;;;;;;14.03;100.00;98880.47;5160151;23;20594;-84
2024/02/17 01:52:22;;;;;;;4.63;3.27;;;;;;;14.02;100.00;98879.63;5162242;23;20589;-84
2024/02/17 01:54:25;;;;;;;4.93;3.50;;;;;;;14.02;100.00;98887.47;5160266;23;20578;-84
2024/02/17 01:56:29;;;;;;;4.80;3.23;;;;;;;14.02;100.00;98889.28;5162914;23;20562;-84
2024/02/17 01:58:33;;;;;;;4.07;3.40;;;;;;;14.02;100.00;98894.53;5163311;23;20680;-84
2024/02/17 02:00:35;;;;;;;3.93;3.50;;;;;;;14.00;100.00;98891.19;5161253;23;20601;-84
2024/02/17 02:02:39;;;;;;;4.73;3.20;;;;;;;13.98;100.00;98891.28;5137939;23;20669;-84
2024/02/17 02:04:42;;;;;;;4.80;3.57;;;;;;;13.98;100.00;98888.66;5137910;23;20638;-84
2024/02/17 02:06:46;;;;;;;4.40;2.97;;;;;;;13.99;100.00;98892.94;5135753;23;20592;-84
2024/02/17 02:08:50;;;;;;;4.30;3.90;;;;;;;13.98;100.00;98890.41;5162610;23;21224;-84
2024/02/17 02:10:54;;;;;;;3.30;2.90;;;;;;;13.96;100.00;98901.03;5162542;23;20593;-84
2024/02/17 02:12:58;;;;;;;4.03;3.10;;;;;;;13.94;100.00;98900.28;5163078;23;20604;-84
2024/02/17 02:15:04;;;;;;;3.63;3.20;;;;;;;13.95;100.00;98901.97;5162762;23;20646;-85
2024/02/17 02:17:08;;;;;;;4.37;3.70;;;;;;;13.93;100.00;98893.38;5162839;23;20531;-85
2024/02/17 02:19:14;;;;;;;4.60;3.60;;;;;;;13.93;100.00;98903.84;5190199;22;20574;-84
2024/02/17 02:21:17;;;;;;;5.03;3.27;;;;;;;13.95;100.00;98904.59;5163251;23;20557;-85
2024/02/17 02:23:21;;;;;;;4.80;3.33;;;;;;;13.96;100.00;98906.25;5162687;23;20580;-85
2024/02/17 02:25:25;;;;;;;4.83;3.90;;;;;;;13.95;100.00;98915.09;5163079;23;21132;-84
2024/02/17 02:27:30;;;;;;;5.70;3.50;;;;;;;13.95;100.00;98906.38;5162141;23;20930;-84
2024/02/17 02:29:33;;;;;;;5.20;3.63;;;;;;;13.93;100.00;98914.34;5162401;23;20734;-85
2024/02/17 02:31:37;;;;;;;4.80;3.77;;;;;;;13.93;100.00;98922.22;5137602;23;20593;-84
2024/02/17 02:33:40;;;;;;;4.67;4.07;;;;;;;13.95;100.00;98922.97;5161826;23;20583;-84
2024/02/17 02:35:44;;;;;;;4.93;3.80;;;;;;;13.92;100.00;98923.19;5163216;23;20578;-84
2024/02/17 02:37:48;;;;;;;5.03;4.07;;;;;;;13.90;100.00;98925.03;5161530;23;20587;-84
2024/02/17 02:39:51;;;;;;;5.20;4.13;;;;;;;13.90;100.00;98925.03;5163264;23;20975;-84
2024/02/17 02:41:54;;;;;;;7.20;4.10;;;;;;;13.88;100.00;98926.13;5162073;23;20608;-84
2024/02/17 02:43:59;;;;;;;5.70;4.00;;;;;;;13.82;100.00;98922.09;5189343;22;20630;-84
2024/02/17 02:46:02;;;;;;;4.57;3.80;;;;;;;13.80;100.00;98929.25;5162826;23;21270;-84
2024/02/17 02:48:06;;;;;;;4.87;4.13;;;;;;;13.79;100.00;98927.56;5161768;23;20584;-84
2024/02/17 02:50:10;;;;;;;4.43;3.70;;;;;;;13.79;100.00;98945.09;5163043;23;20573;-84
2024/02/17 02:52:15;;;;;;;5.57;4.30;;;;;;;13.79;100.00;98947.72;5163107;23;20968;-84
2024/02/17 02:54:19;;;;;;;5.30;3.70;;;;;;;13.81;100.00;98943.19;5161037;23;20620;-85
2024/02/17 02:56:22;;;;;;;5.30;4.37;;;;;;;13.79;100.00;98943.28;5162249;23;20583;-84
2024/02/17 02:58:26;;;;;;;4.87;3.80;;;;;;;13.76;100.00;98954.00;5161587;23;20571;-84
2024/02/17 03:00:29;;;;;;;5.30;4.03;;;;;;;13.72;100.00;98954.31;5138058;23;21177;-84
2024/02/17 03:02:34;;;;;;;5.93;4.70;;;;;;;13.71;100.00;98952.59;5189373;22;20619;-84
2024/02/17 03:04:37;;;;;;;5.40;4.70;;;;;;;13.71;100.00;98950.84;5162636;23;20590;-84
2024/02/17 03:06:40;;;;;;;6.20;4.90;;;;;;;13.72;100.00;98959.53;5138527;23;21161;-84
2024/02/17 03:08:43;;;;;;;5.40;4.33;;;;;;;13.73;100.00;98963.84;5188387;22;20618;-84
2024/02/17 03:10:47;;;;;;;6.00;4.60;;;;;;;13.74;100.00;98966.38;5189644;22;20592;-84
2024/02/17 03:12:50;;;;;;;5.23;4.20;;;;;;;13.74;100.00;98963.75;5164648;23;20564;-84
2024/02/17 03:14:58;;;;;;;7.10;4.60;;;;;;;13.74;100.00;98966.38;5190932;22;21192;-84
2024/02/17 03:17:03;;;;;;;8.17;5.10;;;;;;;13.74;100.00;98960.25;5190195;22;20576;-84
2024/02/17 03:19:06;;;;;;;5.93;4.70;;;;;;;13.72;100.00;98970.84;5139239;23;20576;-84
2024/02/17 03:21:10;;;;;;;6.03;4.40;;;;;;;13.72;100.00;98970.84;5164550;23;20593;-84
2024/02/17 03:23:13;;;;;;;6.00;5.03;;;;;;;13.71;100.00;98970.97;5192089;22;20672;-84
2024/02/17 03:25:19;;;;;;;7.23;5.03;;;;;;;13.74;100.00;98973.38;5165100;23;21015;-84
2024/02/17 03:27:22;;;;;;;5.60;4.27;;;;;;;13.74;100.00;98979.47;5165305;23;21150;-86
2024/02/17 03:29:26;;;;;;;6.27;4.67;;;;;;;13.75;100.00;98982.94;5165180;23;20607;-86
2024/02/17 03:31:29;;;;;;;6.70;4.90;;;;;;;13.74;100.00;98987.34;5163429;23;20616;-86
2024/02/17 03:33:34;;;;;;;8.63;5.23;;;;;;;13.75;100.00;98986.38;5160766;23;20701;-86
2024/02/17 03:35:38;;;;;;;7.93;5.83;;;;;;;13.74;100.00;98987.34;5161148;23;20620;-86
2024/02/17 03:37:41;;;;;;;6.97;4.83;;;;;;;13.76;100.00;98995.94;5160208;23;20568;-86
2024/02/17 03:39:45;;;;;;;6.97;5.50;;;;;;;13.74;100.00;99003.09;5137554;23;20699;-86
2024/02/17 03:41:49;;;;;;;8.33;6.47;;;;;;;13.74;100.00;99005.69;5189374;22;20936;-86
2024/02/17 03:43:52;;;;;;;8.50;6.87;;;;;;;13.73;100.00;99005.81;5162217;23;20609;-86
2024/02/17 03:45:54;;;;;;;9.80;7.03;;;;;;;13.71;100.00;99008.53;5134213;23;20573;-86
2024/02/17 03:47:58;;;;;;;11.40;8.50;;;;;;;13.70;100.00;99009.47;5162086;23;20593;-86
2024/02/17 03:50:03;;;;;;;11.17;8.00;;;;;;;13.69;100.00;99015.63;5162270;23;20638;-86
2024/02/17 03:52:07;;;;;;;10.57;7.90;;;;;;;13.67;100.00;99016.69;5162288;23;20586;-86
2024/02/17 03:54:10;;;;;;;10.43;7.53;;;;;;;13.68;100.00;99031.47;5160955;23;20567;-87
2024/02/17 03:56:15;;;;;;;12.37;8.30;;;;;;;13.65;100.00;99019.41;5161508;23;20641;-86
2024/02/17 03:58:18;;;;;;;12.40;8.80;;;;;;;13.65;100.00;99029.03;5135759;23;21116;-86
2024/02/17 04:00:21;;;;;;;11.10;8.27;;;;;;;13.64;100.00;99025.59;5187985;22;20891;-86
2024/02/17 04:02:24;;;;;;;11.37;8.50;;;;;;;13.65;100.00;99029.91;5161545;23;20583;-86
2024/02/17 04:04:28;;;;;;;11.80;9.17;;;;;;;13.66;100.00;99030.72;5137009;23;20637;-86
2024/02/17 04:06:33;;;;;;;12.30;9.20;;;;;;;13.64;100.00;99038.69;5162253;23;20629;-86
2024/02/17 04:08:36;;;;;;;11.30;9.03;;;;;;;13.64;100.00;99038.69;5161468;23;21212;-86
2024/02/17 04:10:39;;;;;;;11.70;9.20;;;;;;;13.64;100.00;99048.34;5137483;23;20614;-86
2024/02/17 04:12:43;;;;;;;11.27;9.20;;;;;;;13.64;100.00;99058.00;5137197;23;20584;-86
2024/02/17 04:14:46;;;;;;;12.50;10.03;;;;;;;13.62;100.00;99055.50;5187186;22;20712;-86
2024/02/17 04:16:49;;;;;;;12.20;9.90;;;;;;;13.61;100.00;99058.22;5160586;23;20579;-86
2024/02/17 04:18:53;;;;;;;14.03;9.90;;;;;;;13.60;100.00;99067.00;5161972;23;20580;-86
2024/02/17 04:20:56;;;;;;;13.50;10.70;;;;;;;13.60;100.00;99067.00;5135832;23;20611;-86
2024/02/17 04:23:01;;;;;;;15.70;10.40;;;;;;;13.59;100.00;99065.31;5188572;22;20586;-86
2024/02/17 04:25:05;;;;;;;13.40;10.03;;;;;;;13.59;100.00;99075.78;5162522;23;20613;-86
2024/02/17 04:27:11;;;;;;;16.77;12.40;;;;;;;13.58;100.00;99076.75;5186274;22;20625;-87
2024/02/17 04:29:16;;;;;;;13.60;10.30;;;;;;;13.59;100.00;99078.41;5161655;23;20594;-86
2024/02/17 04:31:20;;;;;;;14.50;10.00;;;;;;;13.59;100.00;99081.03;5160129;23;20651;-86
2024/02/17 04:33:22;;;;;;;16.03;11.20;;;;;;;13.58;100.00;99085.44;5162082;23;20567;-86
2024/02/17 04:35:26;;;;;;;17.77;11.73;;;;;;;13.58;100.00;99093.31;5137197;23;21114;-86
2024/02/17 04:37:29;;;;;;;16.77;11.47;;;;;;;13.58;100.00;99089.84;5160833;23;20592;-86
2024/02/17 04:39:34;;;;;;;17.80;12.37;;;;;;;13.57;100.00;99094.25;5161212;23;20563;-86
2024/02/17 04:41:37;;;;;;;17.60;12.43;;;;;;;13.58;100.00;99090.69;5161350;23;20590;-86
2024/02/17 04:43:41;;;;;;;16.27;12.03;;;;;;;13.59;100.00;99094.13;5161397;23;20584;-86
2024/02/17 04:45:44;;;;;;;18.77;11.83;;;;;;;13.62;100.00;99107.06;5187019;22;20566;-86
2024/02/17 04:47:48;;;;;;;16.90;11.47;;;;;;;13.61;100.00;99105.38;5186507;22;20609;-86
2024/02/17 04:49:51;;;;;;;19.53;12.37;;;;;;;13.59;100.00;99110.72;5161287;23;21264;-86
2024/02/17 04:51:55;;;;;;;16.00;11.80;;;;;;;13.59;100.00;99110.72;5162519;23;20582;-86
2024/02/17 04:53:58;;;;;;;17.80;12.50;;;;;;;13.59;100.00;99117.72;5162001;23;20677;-86
2024/02/17 04:56:03;;;;;;;19.10;12.70;;;;;;;13.56;100.00;99117.94;5189018;22;20621;-86
2024/02/17 04:58:06;;;;;;;21.07;13.57;;;;;;;13.57;100.00;99122.25;5161339;23;20625;-86
2024/02/17 05:00:10;;;;;;;20.70;13.47;;;;;;;13.55;100.00;99122.34;5161550;23;20572;-86
2024/02/17 05:02:14;;;;;;;19.10;13.13;;;;;;;13.53;100.00;99132.09;5161773;23;20582;-86
2024/02/17 05:04:17;;;;;;;19.47;13.20;;;;;;;13.55;100.00;99132.00;5162323;23;20649;-86
2024/02/17 05:06:22;;;;;;;20.47;13.77;;;;;;;13.55;100.00;99137.22;5187666;22;20612;-86
2024/02/17 05:08:25;;;;;;;20.63;13.53;;;;;;;13.54;100.00;99143.41;5161080;23;20567;-86
2024/02/17 05:10:27;;;;;;;21.37;14.30;;;;;;;13.51;100.00;99141.81;5162198;23;20981;-86
2024/02/17 05:12:32;;;;;;;20.83;14.17;;;;;;;13.48;100.00;99142.00;5161904;23;20569;-86
2024/02/17 05:14:38;;;;;;;20.47;14.20;;;;;;;13.46;100.00;99148.31;5162047;22;20653;-86
2024/02/17 05:16:40;;;;;;;20.30;13.70;;;;;;;13.45;100.00;99143.97;5160096;23;20606;-86
2024/02/17 05:18:43;;;;;;;19.60;13.90;;;;;;;13.45;100.00;99146.59;5187451;22;20581;-86
2024/02/17 05:20:47;;;;;;;20.27;13.30;;;;;;;13.43;100.00;99144.09;5161135;23;20609;-86
2024/02/17 05:22:51;;;;;;;22.53;14.13;;;;;;;13.41;100.00;99145.09;5136397;23;20622;-86
2024/02/17 05:24:54;;;;;;;20.00;13.37;;;;;;;13.40;100.00;99153.91;5162220;23;20583;-86
2024/02/17 05:26:58;;;;;;;24.53;15.30;;;;;;;13.39;100.00;99152.22;5161475;23;21182;-86
2024/02/17 05:29:05;;;;;;;19.27;13.63;;;;;;;13.35;100.00;99154.22;5190128;22;20604;-86
2024/02/17 05:31:25;;;;;;;22.50;14.60;;;;;;;13.35;100.00;99161.22;5162646;23;20617;-86
2024/02/17 05:33:28;;;;;;;21.20;14.50;;;;;;;13.30;100.00;99169.34;5163372;23;20571;-86
2024/02/17 05:35:32;;;;;;;21.20;14.03;;;;;;;13.30;100.00;99171.13;5163175;23;20575;-86
2024/02/17 05:37:35;;;;;;;23.30;14.67;;;;;;;13.29;100.00;99172.06;5135220;23;20666;-85
2024/02/17 05:39:37;;;;;;;21.67;14.73;;;;;;;13.27;100.00;99174.78;5138086;23;20601;-86
2024/02/17 05:41:42;;;;;;;23.80;15.40;;;;;;;13.26;100.00;99186.22;5164206;23;20994;-86
2024/02/17 05:43:45;;;;;;;24.10;15.30;;;;;;;13.24;100.00;99175.00;5163938;23;20571;-87
2024/02/17 05:45:50;;;;;;;26.00;16.33;;;;;;;13.24;100.00;99189.84;5159964;23;20574;-86
2024/02/17 05:47:53;;;;;;;24.00;14.73;;;;;;;13.18;100.00;99188.47;5136911;23;20626;-84
2024/02/17 05:49:56;;;;;;;24.43;14.87;;;;;;;13.14;100.00;99186.13;5136350;23;20821;-84
2024/02/17 05:51:59;;;;;;;25.70;15.90;;;;;;;13.13;100.00;99194.91;5161611;23;20599;-84
2024/02/17 05:54:03;;;;;;;26.20;15.33;;;;;;;13.11;100.00;99188.94;5161782;23;21125;-84
2024/02/17 05:56:07;;;;;;;25.53;15.40;;;;;;;13.09;100.00;99196.03;5160170;23;20636;-84
2024/02/17 05:58:10;;;;;;;23.23;14.80;;;;;;;13.07;100.00;99189.22;5161375;23;20582;-84
2024/02/17 06:00:14;;;;;;;25.10;16.10;;;;;;;13.05;100.00;99204.16;5186566;22;20593;-84
2024/02/17 06:02:18;;;;;;;22.97;14.57;;;;;;;13.06;100.00;99206.69;5138423;23;21188;-84
2024/02/17 06:04:22;;;;;;;25.97;16.13;;;;;;;13.05;100.00;99207.66;5163997;23;20585;-84
2024/02/17 06:06:26;;;;;;;23.37;15.27;;;;;;;13.04;100.00;99216.44;5137040;23;20618;-84
2024/02/17 06:08:30;;;;;;;24.00;15.60;;;;;;;13.03;100.00;99217.34;5190384;22;20606;-84
2024/02/17 06:10:37;;;;;;;23.90;15.00;;;;;;;13.03;100.00;99216.53;5138604;23;20615;-84
2024/02/17 06:12:40;;;;;;;22.43;15.03;;;;;;;12.99;100.00;99222.88;5162565;23;20907;-84
2024/02/17 06:14:43;;;;;;;24.53;15.23;;;;;;;12.99;100.00;99225.47;5189809;22;20634;-84
2024/02/17 06:16:46;;;;;;;23.20;15.30;;;;;;;13.00;100.00;99230.63;5160515;23;20584;-84
2024/02/17 06:21:11;;;;;;;22.70;14.77;;;;;;;13.01;100.00;99241.97;5161963;23;20590;-84
2024/02/17 06:23:14;;;;;;;22.67;13.70;;;;;;;13.01;100.00;99245.41;5189106;22;20574;-84
2024/02/17 06:25:18;;;;;;;21.50;14.30;;;;;;;13.00;100.00;99253.38;5163009;23;21143;-84
2024/02/17 06:27:21;;;;;;;21.37;14.33;;;;;;;13.00;100.00;99254.19;5189231;22;20566;-85
2024/02/17 06:29:24;;;;;;;26.13;15.20;;;;;;;13.01;100.00;99260.31;5163594;23;20652;-84
2024/02/17 06:31:27;;;;;;;21.10;14.10;;;;;;;12.99;100.00;99265.63;5163285;23;20650;-84
2024/02/17 06:33:31;;;;;;;24.80;15.00;;;;;;;12.99;100.00;99268.25;5138858;23;20563;-84
2024/02/17 06:35:36;;;;;;;23.33;14.47;;;;;;;12.99;100.00;99268.25;5190592;22;20576;-84
2024/02/17 06:37:40;;;;;;;19.77;13.47;;;;;;;13.00;100.00;99272.53;5161940;23;20573;-84
2024/02/17 06:39:43;;;;;;;21.27;14.83;;;;;;;12.99;100.00;99275.25;5190153;22;20591;-84
2024/02/17 06:41:46;;;;;;;21.87;14.23;;;;;;;13.00;100.00;99290.03;5189119;22;20581;-84
2024/02/17 06:43:50;;;;;;;19.07;12.57;;;;;;;12.96;100.00;99289.38;5162751;23;20688;-84
2024/02/17 06:45:53;;;;;;;21.03;13.33;;;;;;;12.97;100.00;99292.84;5188530;22;20563;-84
2024/02/17 06:47:57;;;;;;;21.77;14.90;;;;;;;12.98;100.00;99297.97;5161124;23;20588;-84
2024/02/17 06:50:01;;;;;;;21.90;13.97;;;;;;;12.99;100.00;99304.03;5161164;23;20573;-84
2024/02/17 06:52:07;;;;;;;20.30;13.40;;;;;;;12.98;100.00;99300.59;5189143;22;21209;-84
2024/02/17 06:54:11;;;;;;;21.80;14.23;;;;;;;12.98;100.00;99302.38;5188768;22;20655;-84
2024/02/17 06:56:14;;;;;;;25.77;15.57;;;;;;;12.98;100.00;99302.38;5136483;23;20975;-84
2024/02/17 06:58:17;;;;;;;23.63;14.30;;;;;;;12.97;100.00;99298.91;5160555;23;21131;-86
2024/02/17 07:00:20;;;;;;;25.80;15.23;;;;;;;12.95;100.00;99305.19;5161907;23;20569;-86
2024/02/17 07:02:24;;;;;;;24.60;15.17;;;;;;;12.92;100.00;99307.97;5189566;22;20570;-86
2024/02/17 07:04:30;;;;;;;27.07;16.00;;;;;;;12.89;100.00;99314.22;5161916;23;20582;-86
2024/02/17 07:06:33;;;;;;;26.80;15.50;;;;;;;12.86;100.00;99306.53;5162839;23;20711;-86
2024/02/17 07:08:40;;;;;;;24.60;15.37;;;;;;;12.85;100.00;99309.25;5163246;23;20660;-86
2024/02/17 07:10:43;;;;;;;25.27;15.10;;;;;;;12.83;100.00;99317.19;5162866;23;20579;-86
2024/02/17 07:12:46;;;;;;;24.00;15.10;;;;;;;12.83;100.00;99322.44;5162509;23;20554;-86
2024/02/17 07:14:50;;;;;;;26.13;15.40;;;;;;;12.79;100.00;99320.91;5161546;23;20890;-85
2024/02/17 07:16:54;;;;;;;28.13;15.50;;;;;;;12.78;100.00;99329.69;5159884;23;20577;-86
2024/02/17 07:18:59;;;;;;;26.80;16.00;;;;;;;12.76;100.00;99328.94;5186515;22;20600;-86
2024/02/17 07:21:02;;;;;;;26.27;18.07;;;;;;;12.76;100.00;99336.78;5136127;23;20640;-86
2024/02/17 07:23:05;;;;;;;32.40;18.03;;;;;;;12.78;100.00;99341.94;5188204;22;20565;-86
2024/02/17 07:25:11;;;;;;;31.67;19.57;;;;;;;12.83;100.00;99339.94;5161365;23;20612;-86
2024/02/17 07:27:14;;;;;;;31.13;17.73;;;;;;;13.00;100.00;99343.25;5159356;23;20623;-86
2024/02/17 07:29:16;;;;;;;27.30;16.07;;;;;;;13.18;100.00;99351.81;5135535;23;20624;-86
2024/02/17 07:31:20;;;;;;;26.83;16.30;;;;;;;13.27;100.00;99352.94;5162326;23;20725;-86
2024/02/17 07:33:24;;;;;;;29.77;17.10;;;;;;;13.34;100.00;99364.75;5162481;23;20566;-86
2024/02/17 07:35:27;;;;;;;33.60;21.33;;;;;;;13.49;100.00;99370.88;5163767;23;20577;-86
2024/02/17 07:37:29;;;;;;;33.03;21.13;;;;;;;13.57;100.00;99377.34;5162465;23;21139;-86
2024/02/17 07:39:35;;;;;;;28.40;18.60;;;;;;;13.63;100.00;99379.59;5161654;23;20577;-86
2024/02/17 07:41:40;;;;;;;24.57;15.87;;;;;;;13.67;100.00;99381.94;5162658;23;20608;-86
2024/02/17 07:43:43;;;;;;;25.63;15.83;;;;;;;13.80;100.00;99390.78;5190051;22;21181;-86
2024/02/17 07:45:48;;;;;;;23.20;14.03;;;;;;;13.99;100.00;99399.19;5189256;22;20883;-86
2024/02/17 07:47:52;;;;;;;21.10;13.80;;;;;;;14.04;99.98;99405.00;5161611;23;20582;-87
2024/02/17 07:49:54;;;;;;;25.33;15.40;;;;;;;13.91;99.06;99396.22;5162630;23;20583;-86
2024/02/17 07:51:57;;;;;;;23.63;15.33;;;;;;;13.79;99.37;99399.56;5138177;23;20627;-86
2024/02/17 07:54:01;;;;;;;22.97;14.87;;;;;;;13.71;99.30;99401.81;5163352;23;20641;-86
2024/02/17 07:56:04;;;;;;;23.97;15.23;;;;;;;13.65;99.32;99407.44;5162616;23;20583;-86
2024/02/17 07:58:08;;;;;;;23.00;14.50;;;;;;;13.61;99.03;99399.84;5163535;23;20598;-87
2024/02/17 08:00:14;;;;;;;21.77;14.30;;;;;;;13.65;98.91;99406.56;5163360;23;20581;-86
2024/02/17 08:02:18;;;;;;;23.13;13.73;;;;;;;13.95;100.00;99416.09;5189360;22;20570;-86
2024/02/17 08:04:21;;;;;;;23.80;14.47;;;;;;;14.25;99.10;99417.69;5189914;22;20970;-86
2024/02/17 08:06:25;;;;;;;22.70;14.10;;;;;;;14.49;97.94;99423.19;5137569;23;20604;-87
2024/02/17 08:08:29;;;;;;;21.77;14.23;;;;;;;14.69;98.38;99429.72;5189340;22;21082;-86
2024/02/17 08:10:31;;;;;;;20.90;13.33;;;;;;;14.88;96.69;99432.00;5138092;23;20929;-86
2024/02/17 08:12:34;;;;;;;21.30;13.40;;;;;;;14.96;96.46;99432.34;5137423;23;20628;-86
2024/02/17 08:14:40;;;;;;;19.33;12.40;;;;;;;14.98;96.50;99435.75;5189820;22;20570;-86
2024/02/17 08:16:44;;;;;;;20.83;12.97;;;;;;;15.07;94.36;99438.63;5188707;22;20561;-86
2024/02/17 08:18:47;;;;;;;20.60;14.07;;;;;;;15.13;95.29;99440.84;5162163;23;20799;-90
2024/02/17 08:20:51;;;;;;;18.70;12.40;;;;;;;15.07;95.15;99442.06;5161625;23;20948;-85
2024/02/17 08:22:55;;;;;;;19.30;12.70;;;;;;;15.10;93.50;99438.41;5159490;23;20574;-88
2024/02/17 08:24:58;;;;;;;20.13;12.67;;;;;;;15.20;94.54;99442.19;5137556;23;20678;-86
2024/02/17 08:27:01;;;;;;;19.27;13.47;;;;;;;15.30;93.25;99444.06;5136730;23;20579;-87
2024/02/17 08:29:04;;;;;;;18.43;12.20;;;;;;;15.45;93.40;99447.50;5189139;22;20570;-87
2024/02/17 08:31:09;;;;;;;19.67;12.70;;;;;;;15.56;91.80;99438.78;5138564;23;20971;-90
2024/02/17 08:33:12;;;;;;;18.60;12.70;;;;;;;15.64;92.46;99451.44;5136047;23;20956;-90
2024/02/17 08:35:16;;;;;;;19.50;11.90;;;;;;;15.78;92.77;99456.59;5137823;23;20583;-89
2024/02/17 08:37:19;;;;;;;17.70;11.60;;;;;;;15.84;90.96;99457.03;5161696;23;20587;-89
2024/02/17 08:39:22;;;;;;;21.20;13.37;;;;;;;15.87;90.30;99461.25;5190096;22;20628;-91
2024/02/17 08:41:24;;;;;;;18.23;12.00;;;;;;;15.84;89.88;99459.66;5138923;23;20675;-91
2024/02/17 08:43:27;;;;;;;19.57;13.10;;;;;;;15.89;88.99;99457.59;5163928;23;20591;-91
2024/02/17 08:45:31;;;;;;;20.33;13.10;;;;;;;15.90;89.03;99466.31;5163085;23;20594;-90
2024/02/17 08:47:35;;;;;;;19.53;13.60;;;;;;;15.99;90.95;99463.88;5137975;23;20681;-86
2024/02/17 08:49:37;;;;;;;20.83;12.93;;;;;;;16.09;89.34;99475.50;5137934;23;20957;-86
2024/02/17 08:51:41;;;;;;;18.13;12.53;;;;;;;16.16;90.98;99482.00;5138002;23;20671;-86
2024/02/17 08:53:44;;;;;;;19.60;13.10;;;;;;;16.03;86.58;99476.75;5161432;23;20657;-85
2024/02/17 08:55:48;;;;;;;18.20;13.00;;;;;;;15.97;87.82;99476.31;5160657;23;20567;-86
2024/02/17 08:57:51;;;;;;;17.53;11.80;;;;;;;16.08;88.82;99479.88;5135396;23;20580;-86
2024/02/17 08:59:54;;;;;;;19.07;12.80;;;;;;;16.15;88.60;99488.22;5160728;23;20594;-87
2024/02/17 09:01:57;;;;;;;17.80;12.40;;;;;;;16.05;88.12;99487.16;5132076;23;20584;-85
2024/02/17 09:04:02;;;;;;;17.80;12.17;;;;;;;16.05;88.25;99490.63;5184792;22;20913;-85
2024/02/17 09:06:05;;;;;;;18.50;13.00;;;;;;;15.99;89.72;99494.63;5161019;23;20607;-86
2024/02/17 09:08:09;;;;;;;20.57;14.03;;;;;;;15.90;89.29;99498.72;5161917;23;20595;-86
2024/02/17 09:10:15;;;;;;;16.57;11.63;;;;;;;15.81;88.11;99494.06;5137472;23;20883;-87
2024/02/17 09:12:19;;;;;;;17.97;12.17;;;;;;;15.70;90.55;99499.22;5136689;23;20608;-86
2024/02/17 09:14:22;;;;;;;16.33;12.17;;;;;;;15.53;88.62;99500.44;5189449;22;20575;-87
2024/02/17 09:16:27;;;;;;;15.20;11.00;;;;;;;15.41;86.67;99495.97;5159996;23;20584;-88
2024/02/17 09:18:30;;;;;;;13.20;9.80;;;;;;;15.27;86.89;99494.22;5161892;23;20671;-86
2024/02/17 09:20:35;;;;;;;14.23;9.97;;;;;;;15.38;88.95;99510.16;5163537;23;20595;-86
2024/02/17 09:22:38;;;;;;;13.87;10.03;;;;;;;15.59;86.80;99512.25;5162629;23;20591;-86
2024/02/17 09:24:42;;;;;;;16.33;11.17;;;;;;;15.60;87.60;99511.28;5190197;22;20616;-85
2024/02/17 09:26:45;;;;;;;14.37;10.50;;;;;;;15.39;85.15;99508.38;5162617;23;20572;-86
2024/02/17 09:28:49;;;;;;;14.70;10.07;;;;;;;15.45;85.97;99511.44;5162713;23;20606;-86
2024/02/17 09:30:52;;;;;;;12.90;10.23;;;;;;;15.67;88.20;99528.34;5189545;22;20558;-86